Place Temps Dossard Nom PrÄnom Club Cat. Class. cat. Ecart Ecart cat. Vitesse
1 00:43:55 1210 RONDEAU Nicolas   SEH 1     13,66
2 00:44:19 1084 DUPONT Thibault Tri veloce V1H 1 00:00:24   13,54
3 00:45:35 1224 THIRE Jonathan Asbr Reze SEH 2 00:01:40 00:01:40 13,16
4 00:46:10 1080 DUCOIN Patrice V1H 2 00:02:15 00:01:51 13
5 00:47:58 1113 HUTIN Manu SEH 3 00:04:03 00:04:03 12,51
6 00:48:29 1200 RENAUD Sebastien TRIVELOCE ST SEBASTIEN V1H 3 00:04:34 00:04:10 12,38
7 00:48:29 1028 BONNET Patrick V1H 4 00:04:34 00:04:10 12,38
8 00:48:33 1175 NEAU Stephane SEH 4 00:04:38 00:04:38 12,36
9 00:48:35 1115 JAUMOUILLE Tanguy V1H 5 00:04:40 00:04:16 12,35
10 00:49:01 1168 MONTAMAT Stâphane V1H 6 00:05:06 00:04:42 12,24
11 00:50:08 1100 GILARD Jean-Michel V1H 7 00:06:13 00:05:49 11,97
12 00:53:23 1198 REDOIS Mikael SEH 5 00:09:28 00:09:28 11,24
13 00:53:29 1118 JOUVE Philippe V1H 8 00:09:34 00:09:10 11,22
14 00:53:58 1011 BARON Franck V3H 1 00:10:03 11,12
15 00:54:08 1194 QUIRION Michael V1H 9 00:10:13 00:09:49 11,08
16 00:54:14 1222 SUREAU Antoine SEH 6 00:10:19 00:10:19 11,06
17 00:54:19 1063 COLLOT Olivier SEH 7 00:10:24 00:10:24 11,05
18 00:54:21 1098 JAMES Philippe V1H 10 00:10:26 00:10:02 11,04
19 00:54:36 1102 GIRAUDEAU Mikael V1H 11 00:10:41 00:10:17 10,99
20 00:54:37 1036 BRANGER Denis SEH 8 00:10:42 00:10:42 10,99
21 00:54:43 1077 DEROCHE Nicolas V1H 12 00:10:48 00:10:24 10,97
22 00:55:07 1043 BRIAND Olivier V1H 13 00:11:12 00:10:48 10,89
23 00:55:44 1166 MOINET Francois-Xavier V1H 14 00:11:49 00:11:25 10,77
24 00:55:57 1199 REDOIS David SEH 9 00:12:02 00:12:02 10,72
25 00:56:21 1075 DERAME Guillaume SEH 10 00:12:26 00:12:26 10,65
26 00:56:41 1204 KERDONCUFF Yann SEH 11 00:12:46 00:12:46 10,59
27 00:56:46 1093 GALLAIS Regis V1H 15 00:12:51 00:12:27 10,57
28 00:56:52 1155 MABED Patrick V1H 16 00:12:57 00:12:33 10,55
29 00:56:52 1074 DENIS Gilles VÄlo Club SÄbastiennais V1H 17 00:12:57 00:12:33 10,55
30 00:56:52 1172 MOREAU Denis V2H 1 00:12:57 10,55
31 00:56:59 1009 BARBEAU David ESH 1 00:13:04 10,53
32 00:57:05 1097 GAZIO Olivier V1H 18 00:13:10 00:12:46 10,51
33 00:57:17 1151 LEVEQUE Paul carquefou ac V2H 2 00:13:22 00:00:25 10,47
34 00:57:36 1171 MOREAU Theo SEH 12 00:13:41 00:13:41 10,42
35 00:57:41 1044 BRICAUD Matthieu SEH 13 00:13:46 00:13:46 10,4
36 00:57:48 1225 TOUFFET Elodie   SEF 1 00:13:53 00:09:15 10,38
37 00:57:48 1167 DANTEC Philippe herbauge athlÄ44 V2H 1 00:13:53 10,38
38 00:57:48 1143 LELEUX Lionel V1H 19 00:13:53 00:13:29 10,38
39 00:57:56 1090 FOUSSIER Guillaume ATHLE DU PAYS DE REDON SEH 14 00:14:01 00:14:01 10,36
40 00:58:03 1052 CABARET Guillaume SEH 15 00:14:08 00:14:08 10,34
41 00:58:10 1157 MAHâ Laurent SEH 16 00:14:15 00:14:15 10,32
42 00:58:32 1170 MOREAU Tom ESH 2 00:14:37 00:01:33 10,25
43 00:58:33 1162 MARTINEAU Marion   SEF 2 00:14:38 00:00:45 10,25
44 00:58:39 1059 CIVEL Jonathan SEH 17 00:14:44 00:14:44 10,23
45 00:58:55 1160 MANUS Julien Tri Club Clissonnais SEH 18 00:15:00 00:15:00 10,18
46 00:58:55 1068 DAVY Florent Tri Club Clissonnais V1H 20 00:15:00 00:14:36 10,18
47 00:58:55 1191 PRINEAU Fabien V1H 21 00:15:00 00:14:36 10,18
48 00:58:55 1010 BARBIN Arnaud SEH 19 00:15:00 00:15:00 10,18
49 00:59:14 1029 BOTHOREL Hugues V1H 22 00:15:19 00:14:55 10,13
50 00:59:40 1106 GRATON Yannick nma -snac V2H 3 00:15:45 00:02:48 10,06
51 00:59:46 1066 DA COSTA Jordan SEH 20 00:15:51 00:15:51 10,04
52 01:00:03 1137 LECLAIR Nicolas V1H 23 00:16:08 00:15:44 9,99
53 01:00:03 1214 SALINAS Alis La Vaillante SEF 3 00:16:08 00:02:15 9,99
54 01:00:03 1136 LEBAS Hervâ SEH 21 00:16:08 00:16:08 9,99
55 01:00:03 1228 VERDIER Stephane V1H 24 00:16:08 00:15:44 9,99
56 01:00:23 1211 ROUILLER Magali SEF 4 00:16:28 00:02:35 9,94
57 01:00:27 1201 RENAUD Guillaume SEH 22 00:16:32 00:16:32 9,93
58 01:00:38 1196 RAFFLEGEAU Stâphane V1H 25 00:16:43 00:16:19 9,9
59 01:00:38 1240 ALLAIN Bruno V1H 26 00:16:43 00:16:19 9,9
60 01:00:48 1085 DURAND Francois SEH 23 00:16:53 00:16:53 9,87
61 01:00:54 1007 BAIGTS Johanne SEF 5 00:16:59 00:03:06 9,85
62 01:00:57 1035 BOUSSEAU Gârard V3H 2 00:17:02 00:06:59 9,84
63 01:00:59 1058 CHEVALIER Arnaud V1H 27 00:17:04 00:16:40 9,84
64 01:01:12 1148 LEROUX Julien SEH 24 00:17:17 00:17:17 9,8
65 01:01:13 73 DE RAIMOND Francois LA VAILLANTE VERTOU V2H 4 00:17:18 00:04:21 9,8
66 01:01:19 1008 BARANGER Julien SEH 25 00:17:24 00:17:24 9,79
67 01:01:23 1183 PAPIN Denis V2H 5 00:17:28 00:04:31 9,77
68 01:01:49 1001 ALLIAUME Sylvie la vaillante V1F 1 00:17:54 00:04:01 9,71
69 01:01:49 1236 GUERIN Jean-Paul Vt-Trail Chateau-ThÄbaud V2H 6 00:17:54 00:04:57 9,71
70 01:01:59 1086 FANTINI Valerie V1F 2 00:18:04 00:00:10 9,68
71 01:02:04 1163 MARTINEAU Mickael SEH 26 00:18:09 00:18:09 9,67
72 01:02:24 1026 LANDAIS Lois SEH 27 00:18:29 00:18:29 9,62
73 01:02:49 1040 BRETIN Marie Madeleine V1F 3 00:18:54 00:01:00 9,55
74 01:02:51 1142 RAMOS Jean Louis V2H 7 00:18:56 00:05:59 9,55
75 01:02:59 1018 BERNARD Jean-Pierre V1H 28 00:19:04 00:18:40 9,53
76 01:03:07 1092 FREUCHET Catherine Vaillante Vertou V2F 1 00:19:12 9,51
77 01:03:20 1024 BOCHER Antony SEH 28 00:19:25 00:19:25 9,47
78 01:03:24 1005 BACHELIER Anthony V1H 29 00:19:29 00:19:05 9,46
79 01:03:44 1038 BRAUD Stephen SEH 29 00:19:49 00:19:49 9,41
80 01:03:47 1207 ROBIN Câline SCL V1F 4 00:19:52 00:01:58 9,41
81 01:03:47 1116 JOLYS Râgis V1H 30 00:19:52 00:19:28 9,41
82 01:03:47 1153 LUCAS Thierry course loisirs sorinieres V2H 8 00:19:52 00:06:55 9,41
83 01:03:47 1182 PALUSSIERE Jean-Marie Sorinieres Course Loisir V2H 9 00:19:52 00:06:55 9,41
84 01:04:05 1076 DEROCHE Morgane V1F 5 00:20:10 00:02:16 9,36
85 01:04:16 1053 CHAMBIRON Jean Marie V2H 10 00:20:21 00:07:24 9,34
86 01:04:16 1132 LE CHANONY Cedrick V1H 31 00:20:21 00:19:57 9,34
87 01:04:16 1131 LE BARZE Yann V1H 32 00:20:21 00:19:57 9,34
88 01:04:22 1019 BEYENS Guillaume SEH 30 00:20:27 00:20:27 9,32
89 01:04:23 1032 BOUCHET Valentin SEH 31 00:20:28 00:20:28 9,32
90 01:04:29 1126 BOISSELEAU Yannick V1H 33 00:20:34 00:20:10 9,3
91 01:04:30 1127 LANOE Christophe V1H 34 00:20:35 00:20:11 9,3
92 01:04:30 1071 DEGORCE Sâbastien SEH 32 00:20:35 00:20:35 9,3
93 01:04:40 1042 MONTAMAT Isabelle V1F 6 00:20:45 00:02:51 9,28
94 01:04:44 1062 COLLETTE Aurelie SEF 6 00:20:49 00:06:56 9,27
95 01:04:49 1020 BIBENS Erwan SEH 33 00:20:54 00:20:54 9,26
96 01:04:51 1037 BRAUD Romain SEH 34 00:20:56 00:20:56 9,25
97 01:04:58 1177 ORIEUX Nathalie guiboles et gambettes V1F 7 00:21:03 00:03:09 9,24
98 01:05:05 1002 ANDRE Jacques VAILLANTE V2H 11 00:21:10 00:08:13 9,22
99 01:05:05 1205 RIVALLAND Annabelle La vaillante V1F 8 00:21:10 00:03:16 9,22
100 01:05:05 1230 VISONNEAU Vincent V1H 35 00:21:10 00:20:46 9,22
101 01:05:05 1141 LEJEUNE Câcile La vaillante V1F 9 00:21:10 00:03:16 9,22
102 01:05:12 1149 LEROY Virginie la vaillante V1F 10 00:21:17 00:03:23 9,2
103 01:05:18 1152 LIGNEREUX Francois V2H 12 00:21:23 00:08:26 9,19
104 01:05:20 1109 GUYADER Lionel V2H 13 00:21:25 00:08:28 9,18
105 01:05:26 1154 LUCBEREILH Regis V2H 14 00:21:31 00:08:34 9,17
106 01:05:26 1048 BUCHS Fredic BCT V2H 15 00:21:31 00:08:34 9,17
107 01:05:39 1124 LAISNE Laurence guiboles et gambettes V1F 11 00:21:44 00:03:50 9,14
108 01:05:42 1216 SANCHEZ Marie V1F 12 00:21:47 00:03:53 9,13
109 01:05:44 1094 GALY Câline SEF 7 00:21:49 00:07:56 9,13
110 01:05:48 1188 PLOTEAU Delphine RC Nantais SEF 8 00:21:53 00:08:00 9,12
111 01:05:52 1112 HOUDIN Delphine SEF 9 00:21:57 00:08:04 9,11
112 01:05:53 1022 BIZON Hadrien SEH 35 00:21:58 00:21:58 9,11
113 01:06:07 1004 BACHELIER Orianne V1F 13 00:22:12 00:04:18 9,07
114 01:06:15 1220 SIMONNET Arthur CAG 1 00:22:20 9,06
115 01:06:28 1021 BIOTEAU Michel V2H 16 00:22:33 00:09:36 9,03
116 01:06:33 1064 COUTAGNE Sarah SEF 10 00:22:38 00:08:45 9,02
117 01:06:34 1072 DENIS Claire SEF 11 00:22:39 00:08:46 9,01
118 01:06:35 1003 BABARY Jennifer RUN FOR FUN Aigrefeuille sur m SEF 12 00:22:40 00:08:47 9,01
119 01:06:37 1145 LEMASSON Aurelie SEF 13 00:22:42 00:22:18 9,01
120 01:06:42 1114 JACQUEMIN Sylvie V1F 14 00:22:47 00:04:53 9
121 01:06:42 1125 BOISSELEAU Valerie V1F 15 00:22:47 00:04:53 9
122 01:06:42 1073 DENIS Jules VÄlo Club SÄbastiennais CAG 2 00:22:47 00:00:27 9
123 01:06:42 1081 DUDOUIT Sophie RUN QUI PEUT AU BIGNON V1F 16 00:22:47 00:04:53 9
124 01:07:22 1045 BRISTEAU Elody SEF 14 00:23:27 00:09:34 8,91
125 01:07:47 1233 WERNERT Sylviane RUN QUI PEUT AU BIGNON V1F 17 00:23:52 00:05:58 8,85
126 01:07:48 1212 SABATIER Virginie SEF 15 00:23:53 00:10:00 8,85
127 01:07:56 1047 BRUNEAU Sophie SEF 16 00:24:01 00:10:08 8,83
128 01:08:06 1209 ROLLO Monique V2F 2 00:24:11 00:04:59 8,81
129 01:08:15 1227 VAN DONSELAAR Jan V1H 37 00:24:20 00:23:56 8,79
130 01:08:34 1234 WINGARDIN Valentin SEH 36 00:24:39 00:24:39 8,75
131 01:08:52 1099 GICQUEL Fabian V1H 38 00:24:57 00:24:33 8,71
132 01:08:57 1055 CHARBONNIER Maud V1F 18 00:25:02 00:07:08 8,7
133 01:09:03 1165 MIDON Agnes Triathlon Club Nantais V1F 19 00:25:08 00:07:14 8,69
134 01:09:16 1138 LEFEUVRE Catherine V2F 3 00:25:21 00:06:09 8,66
135 01:09:22 1144 LELOUP Delphine SEF 17 00:25:27 00:11:34 8,65
136 01:09:27 1169 MOREAU Marielle V2F 4 00:25:32 00:06:20 8,64
137 01:09:28 1096 GAUTIER Isabelle SCL V1F 20 00:25:33 00:07:39 8,64
138 01:09:37 1104 GODTSCHALCK Anne V1F 21 00:25:42 00:07:48 8,62
139 01:09:37 1241 GODTSCHALCK Christophe V1H 39 00:25:42 00:25:18 8,62
140 01:09:49 1083 DUPONT Florence SEF 18 00:25:54 00:12:01 8,59
141 01:09:53 1101 GIRAUD Philippe V1H 40 00:25:58 00:25:34 8,59
142 01:10:00 1243 DUMANT Denis SEH 37 00:26:05 00:26:05 8,57
143 01:10:07 1079 OZENNE Nathalie V1F 22 00:26:12 00:08:18 8,56
144 01:10:15 1056 CHAUVRIERE Joel V2H 17 00:26:20 00:13:23 8,54
145 01:10:22 1219 SIMONNET Philippe V1H 41 00:26:27 00:26:03 8,53
146 01:10:28 1242 0 00:26:33 8,51
147 01:10:29 1122 KERSALâ Laetitia SEF 19 00:26:34 00:12:41 8,51
148 01:10:35 1082 DUHEM Julien SEH 38 00:26:40 00:26:40 8,5
149 01:10:51 1178 OROSCO Marion SEF 20 00:26:56 00:13:03 8,47
150 01:10:54 1203 RICHARD Delphine SEF 21 00:26:59 00:13:06 8,46
151 01:10:56 1187 PITON Cedric SEH 39 00:27:01 00:27:01 8,46
152 01:11:03 1078 DEXMIER Amelie SEF 22 00:27:08 00:13:15 8,44
153 01:11:03 1180 PAIUSCO Nicolas SORINIÚRES course loisir V1H 42 00:27:08 00:26:44 8,44
154 01:11:03 1206 ROBIN Thierry SCL V1H 43 00:27:08 00:26:44 8,44
155 01:11:16 1226 TRANQUART Romain SEH 40 00:27:21 00:27:21 8,42
156 01:11:33 1161 MARGUIN Audrey ACC SEF 23 00:27:38 00:13:45 8,39
157 01:11:41 1123 LAIR Aurelie V1F 23 00:27:46 00:09:52 8,37
158 01:11:44 1016 BELLEMANS Pascaline V1F 24 00:27:49 00:09:55 8,36
159 01:11:44 1015 BELLEMANS Brice V1H 44 00:27:49 00:27:25 8,36
160 01:11:53 1192 QUENEL Isabelle LA VAILLANTE V1F 25 00:27:58 00:10:04 8,35
161 01:12:06 1110 HERVOUET Marie-Claude SCL LES SORINIERES V1F 26 00:28:11 00:10:17 8,32
162 01:12:06 1238 BOISSEAU Adeline SEF 24 00:28:11 00:14:18 8,32
163 01:12:18 1193 QUESNE Estelle RAID DES GENETS V1F 27 00:28:23 00:10:29 8,3
164 01:12:51 1111 HIBON Guillaume V1H 45 00:28:56 00:28:32 8,24
165 01:12:51 1164 MEIGNEN Richard SEH 41 00:28:56 00:28:56 8,24
166 01:13:11 1049 BULOURDE Virginie SEF 25 00:29:16 00:15:23 8,2
167 01:13:18 1014 BAUDRON Arnaud SEH 42 00:29:23 00:29:23 8,19
168 01:13:42 1223 TEPAUT Fanny SEF 26 00:29:47 00:15:54 8,14
169 01:14:13 1139 LEFEUVRE Pascal V2H 18 00:30:18 00:17:21 8,08
170 01:14:14 1034 BOURBIGOT Loren SEF 27 00:30:19 00:16:26 8,08
171 01:14:23 1213 SABOUA Ambre SEF 28 00:30:28 00:16:35 8,07
172 01:14:27 1189 POIRON Jean Pierre V2H 19 00:30:32 00:17:35 8,06
173 01:14:27 1190 POIRON Laura SEF 29 00:30:32 00:16:39 8,06
174 01:14:36 1202 RENAUDIN Jean Michel V1H 46 00:30:41 00:30:17 8,04
175 01:14:50 1218 SIMONNET Rachel V1F 28 00:30:55 00:13:01 8,02
176 01:15:03 1031 BOUCHER Sandrine SEF 30 00:31:08 00:17:15 7,99
177 01:15:04 1069 DE MONCHY Caroline SEF 31 00:31:09 00:17:16 7,99
178 01:15:12 1173 MOREAU Murielle V1F 29 00:31:17 00:13:23 7,98
179 01:15:13 1091 FRANCE Laure SEF 32 00:31:18 00:17:25 7,98
180 01:15:13 1156 MAHOT Fabien SEH 43 00:31:18 00:31:18 7,98
181 01:15:30 1146 LEPARC Sandrine Triathlon club nantais SEF 33 00:31:35 00:17:42 7,95
182 01:15:48 1150 LETHIMONIER Mireille La Vaillante Vertou V2F 5 00:31:53 00:12:41 7,92
183 01:15:52 1174 MORISSET Marie SEF 34 00:31:57 00:18:04 7,91
184 01:15:53 1057 CHERRIER AgnÚs V1F 30 00:31:58 00:14:04 7,91
185 01:16:00 1215 SALâ Jean-Luc V2H 20 00:32:05 00:19:08 7,89
186 01:16:02 1120 JUTON Lauriane vt-trail Chëteau-ThÄbaud JUF 1 00:32:07 7,89
187 01:16:18 1158 MANDIN-DIRAISON Philippe V2H 21 00:32:23 00:19:26 7,86
188 01:16:38 1041 BREVET Gârard V1H 47 00:32:43 00:32:19 7,83
189 01:17:21 1027 BONNET Elise SEF 35 00:33:26 00:19:33 7,76
190 01:17:41 1134 LE CORGUILLE Marine SEF 36 00:33:46 00:19:53 7,72
191 01:17:49 1103 GODET Amâlie V1F 31 00:33:54 00:16:00 7,71
192 01:18:20 1184 PASQUET Julie SEF 37 00:34:25 00:20:32 7,66
193 01:18:20 1186 PILLET Jessica SEF 38 00:34:25 00:20:32 7,66
194 01:18:25 1088 FOLLIOT Martine V1F 32 00:34:30 00:16:36 7,65
195 01:18:25 1197 RAIMBAULT Babeth LA VAILLANTE VERTOU V1F 33 00:34:30 00:16:36 7,65
196 01:18:25 1012 BASQUIN Armelle V1F 34 00:34:30 00:16:36 7,65
197 01:18:42 1107 GRELIER Patricia vertou la vaillante V1F 35 00:34:47 00:16:53 7,62
198 01:19:01 1039 BRETHOMâ Nathalie SEF 39 00:35:06 00:21:13 7,59
199 01:19:23 1208 ROLLO Anaelle SEF 40 00:35:28 00:21:35 7,56
200 01:19:23 1146 LEPARC Sandrine Triathlon club nantais SEF 41 00:35:28 00:21:35 7,56
201 01:22:00 1013 BACHELIER Jacques COURIR AVEC V2H 22 00:38:05 00:25:08 7,32
202 01:22:02 1046 BRUN Jean-Claude COURIR AVEC V2H 23 00:38:07 00:25:10 7,31
203 01:22:12 1051 BUREAU Anaýs COURIR AVEC CAF 1 00:38:17 7,3
204 01:22:12 1050 BUREAU Sylvain COURIR AVEC V1H 48 00:38:17 00:37:53 7,3
205 01:22:12 1140 LEGENDRE Philippe COURIR AVEC V3H 3 00:38:17 00:28:14 7,3
206 01:22:12 1135 LE RUYET Nadine COURIR AVEC V2F 6 00:38:17 00:19:05 7,3
207 01:22:12 1235 HOUŔL Jâr´me COURIR AVEC V1H 49 00:38:17 00:37:53 7,3
208 01:22:13 1130 LAUVERJAT Elvire COURIR AVEC V2F 7 00:38:18 00:19:06 7,3
209 01:22:13 1159 MANSON Natacha COURIR AVEC V1F 36 00:38:18 00:20:24 7,3
210 01:22:13 1128 LASNIER Marie COURIR AVEC V3F 1 00:38:18 7,3
211 01:22:13 1176 OLIVE Henri COURIR AVEC V3H 4 00:38:18 00:28:15 7,3
212 01:22:23 1089 FOURAGE HâlÚne V2F 8 00:38:28 00:19:16 7,28
213 01:22:29 1030 BOUCHAUD Florence V2F 9 00:38:34 00:19:22 7,27
214 01:22:29 1147 LERAY Bânâdicte SEF 42 00:38:34 00:24:41 7,27
215 01:24:17 1217 SANTERRE Nathalie V1F 37 00:40:22 00:22:28 7,12
216 01:24:17 1033 BOUJU Chantal V1F 38 00:40:22 00:22:28 7,12
217 01:25:55 1095 GAUDET Nathalie V1F 39 00:42:00 00:24:06 6,98
218 01:25:55 1119 JUTON Graziella vt-trail Chëteau ThÄbaud V1F 40 00:42:00 00:24:06 6,98
219 01:27:52 1231 WENTZY Magali SEF 43 00:43:57 00:30:04 6,83
220 01:27:52 1232 WENTZY Sâbastien SEH 44 00:43:57 00:43:57 6,83
221 01:29:44 1054 CHAMP SÄverine SEF 44 00:45:49 00:31:56 6,69
222 01:29:44 1117 BERGERE SÄverine ESF 1 00:45:49 6,69
223 01:30:30 1070 DE RAIMOND Cathy La Vaillante Vertou V1F 41 00:46:35 00:28:41 6,63
224 01:30:31 1060 CLERGET Marie-Paule LA VAILLANTE VERTOU V2F 10 00:46:36 00:27:24 6,63
225 01:30:32 1065 CUEFF Jâr´me SEH 45 00:46:37 00:46:37 6,63